Time;durP1;ratioP1;P1;durP2;ratioP2;P2;SDS_P1;SDS_P2;PMS_P1;PMS_P2;Temp;Humidity;BMP_temperature;BMP_pressure;BME280_temperature;BME280_humidity;BME280_pressure;Samples;Min_cycle;Max_cycle;Signal;HPM_P1;HPM_P2
2022/04/13 00:01:47;;;;;;;8.45;7.35;;;;;;;;;;5071387;28;20036;-28
2022/04/13 00:04:14;;;;;;;9.90;7.50;;;;;;;;;;5071170;28;20450;-28
2022/04/13 00:06:40;;;;;;;10.15;8.48;;;;;;;;;;5053270;28;20060;-28
2022/04/13 00:09:12;;;;;;;10.63;8.30;;;;;;;;;;5053115;28;20138;-29
2022/04/13 00:11:38;;;;;;;9.55;8.32;;;;;;;;;;5071422;28;20482;-27
2022/04/13 00:14:04;;;;;;;11.13;9.13;;;;;;;;;;5071295;28;20040;-28
2022/04/13 00:16:30;;;;;;;9.27;8.38;;;;;;;;;;5071755;28;20036;-27
2022/04/13 00:18:57;;;;;;;11.45;8.98;;;;;;;;;;5053256;28;20051;-29
2022/04/13 00:21:23;;;;;;;9.57;8.50;;;;;;;;;;5071551;28;20040;-27
2022/04/13 00:23:49;;;;;;;11.07;8.18;;;;;;;;;;5071769;28;20102;-29
2022/04/13 00:26:15;;;;;;;12.38;8.63;;;;;;;;;;5071574;28;20499;-28
2022/04/13 00:28:41;;;;;;;10.25;9.00;;;;;;;;;;5071334;28;20036;-28
2022/04/13 00:31:07;;;;;;;9.38;8.50;;;;;;;;;;5070688;28;20051;-26
2022/04/13 00:33:33;;;;;;;11.70;9.07;;;;;;;;;;5072692;28;20071;-29
2022/04/13 00:35:59;;;;;;;10.63;9.23;;;;;;;;;;5074793;28;20041;-27
2022/04/13 00:38:26;;;;;;;9.52;8.63;;;;;;;;;;5074647;28;20094;-27
2022/04/13 00:40:52;;;;;;;12.88;9.02;;;;;;;;;;5075278;28;20428;-29
2022/04/13 00:43:18;;;;;;;10.70;9.50;;;;;;;;;;5074842;28;20040;-28
2022/04/13 00:45:45;;;;;;;11.73;8.85;;;;;;;;;;5074636;28;20055;-26
2022/04/13 00:48:17;;;;;;;10.68;9.57;;;;;;;;;;5074522;28;20046;-28
2022/04/13 00:50:43;;;;;;;9.30;8.35;;;;;;;;;;5056954;28;20398;-27
2022/04/13 00:53:09;;;;;;;10.80;9.27;;;;;;;;;;5074111;28;20040;-27
2022/04/13 00:55:37;;;;;;;11.10;9.10;;;;;;;;;;5074235;28;20041;-27
2022/04/13 00:58:04;;;;;;;12.25;10.25;;;;;;;;;;5073533;28;20123;-31
2022/04/13 01:00:31;;;;;;;11.48;9.63;;;;;;;;;;5073833;28;20120;-34
2022/04/13 01:02:58;;;;;;;10.48;9.48;;;;;;;;;;5073123;28;20120;-31
2022/04/13 01:05:24;;;;;;;10.80;9.70;;;;;;;;;;5073667;28;20119;-32
2022/04/13 01:07:51;;;;;;;10.98;8.82;;;;;;;;;;5071828;28;20071;-30
2022/04/13 01:10:17;;;;;;;13.88;10.02;;;;;;;;;;5073740;28;20036;-31
2022/04/13 01:12:43;;;;;;;10.50;9.43;;;;;;;;;;5072404;28;20032;-30
2022/04/13 01:15:09;;;;;;;10.02;9.02;;;;;;;;;;5073427;28;20100;-31
2022/04/13 01:17:39;;;;;;;13.50;10.18;;;;;;;;;;5064333;28;20044;-30
2022/04/13 01:20:06;;;;;;;11.13;9.65;;;;;;;;;;5053059;28;20120;-30
2022/04/13 01:22:32;;;;;;;11.68;10.48;;;;;;;;;;5056544;28;20091;-30
2022/04/13 01:24:58;;;;;;;11.60;10.40;;;;;;;;;;5053089;28;20045;-29
2022/04/13 01:27:26;;;;;;;12.68;11.07;;;;;;;;;;5063039;28;20045;-30
2022/04/13 01:29:54;;;;;;;12.13;10.55;;;;;;;;;;5073234;28;20055;-30
2022/04/13 01:32:20;;;;;;;12.40;11.20;;;;;;;;;;5066307;28;20102;-30
2022/04/13 01:34:50;;;;;;;12.05;10.90;;;;;;;;;;5052591;28;20399;-30
2022/04/13 01:37:17;;;;;;;14.55;11.40;;;;;;;;;;5061198;28;20418;-32
2022/04/13 01:39:43;;;;;;;12.10;10.75;;;;;;;;;;5072988;28;20037;-32
2022/04/13 01:42:09;;;;;;;12.73;10.82;;;;;;;;;;5072035;28;20044;-30
2022/04/13 01:44:35;;;;;;;11.32;10.23;;;;;;;;;;5072649;28;20051;-31
2022/04/13 01:47:01;;;;;;;12.43;11.15;;;;;;;;;;5072232;28;20033;-31
2022/04/13 01:49:27;;;;;;;12.32;10.68;;;;;;;;;;5073022;28;20123;-30
2022/04/13 01:51:53;;;;;;;11.02;9.93;;;;;;;;;;5072316;28;20044;-30
2022/04/13 01:54:19;;;;;;;11.88;10.32;;;;;;;;;;5072640;28;20093;-32
2022/04/13 01:56:45;;;;;;;11.80;10.70;;;;;;;;;;5072744;28;20148;-32
2022/04/13 01:59:11;;;;;;;11.63;10.43;;;;;;;;;;5072066;28;20090;-31
2022/04/13 02:01:43;;;;;;;10.25;9.32;;;;;;;;;;5072443;28;20032;-29
2022/04/13 02:04:16;;;;;;;11.38;10.15;;;;;;;;;;5072032;28;20048;-33
2022/04/13 02:06:42;;;;;;;12.50;10.38;;;;;;;;;;5072491;28;20460;-32
2022/04/13 02:09:08;;;;;;;11.45;10.43;;;;;;;;;;5071370;28;20041;-33
2022/04/13 02:11:34;;;;;;;11.70;10.48;;;;;;;;;;5072444;28;20044;-32
2022/04/13 02:14:00;;;;;;;12.45;11.25;;;;;;;;;;5071623;28;20495;-31
2022/04/13 02:16:26;;;;;;;13.63;12.27;;;;;;;;;;5072511;28;20378;-31
2022/04/13 02:18:53;;;;;;;15.32;10.68;;;;;;;;;;5071166;28;20040;-31
2022/04/13 02:21:19;;;;;;;11.90;10.50;;;;;;;;;;5072058;28;20149;-31
2022/04/13 02:23:46;;;;;;;12.93;11.45;;;;;;;;;;5071207;28;20436;-32
2022/04/13 02:26:12;;;;;;;12.80;11.45;;;;;;;;;;5072454;28;20133;-30
2022/04/13 02:28:38;;;;;;;13.55;12.15;;;;;;;;;;5065640;28;20037;-30
2022/04/13 02:31:04;;;;;;;16.08;12.40;;;;;;;;;;5071941;28;20049;-29
2022/04/13 02:33:34;;;;;;;13.82;12.43;;;;;;;;;;5071372;28;20289;-30
2022/04/13 02:36:00;;;;;;;13.07;11.77;;;;;;;;;;5071833;28;20509;-33
2022/04/13 02:38:26;;;;;;;13.98;12.57;;;;;;;;;;5070985;28;20074;-30
2022/04/13 02:40:52;;;;;;;14.68;13.18;;;;;;;;;;5071770;28;20469;-31
2022/04/13 02:43:19;;;;;;;15.05;13.20;;;;;;;;;;5071135;28;20029;-29
2022/04/13 02:45:45;;;;;;;12.98;11.60;;;;;;;;;;5073210;28;20099;-28
2022/04/13 02:48:11;;;;;;;12.68;11.43;;;;;;;;;;5072800;28;20040;-28
2022/04/13 02:50:37;;;;;;;12.90;11.40;;;;;;;;;;5072598;28;20055;-28
2022/04/13 02:53:03;;;;;;;12.82;11.50;;;;;;;;;;5072221;28;20051;-29
2022/04/13 02:55:30;;;;;;;14.48;12.65;;;;;;;;;;5072158;28;20060;-28
2022/04/13 02:57:56;;;;;;;14.00;12.13;;;;;;;;;;5071019;28;20043;-28
2022/04/13 03:00:22;;;;;;;12.63;11.38;;;;;;;;;;5071742;28;20093;-27
2022/04/13 03:02:48;;;;;;;12.65;11.40;;;;;;;;;;5072107;28;20110;-30
2022/04/13 03:05:14;;;;;;;13.32;11.82;;;;;;;;;;5071712;28;20044;-28
2022/04/13 03:07:40;;;;;;;14.65;11.45;;;;;;;;;;5071944;28;20161;-27
2022/04/13 03:10:07;;;;;;;14.35;12.07;;;;;;;;;;5071994;28;20504;-28
2022/04/13 03:12:34;;;;;;;12.90;11.55;;;;;;;;;;5071998;28;20487;-28
2022/04/13 03:15:01;;;;;;;12.65;11.35;;;;;;;;;;5071734;28;20071;-28
2022/04/13 03:17:28;;;;;;;15.55;12.60;;;;;;;;;;5071591;28;20038;-27
2022/04/13 03:19:54;;;;;;;13.68;12.35;;;;;;;;;;5071237;28;20036;-27
2022/04/13 03:22:23;;;;;;;13.13;11.73;;;;;;;;;;5071449;28;20036;-28
2022/04/13 03:24:51;;;;;;;16.58;12.45;;;;;;;;;;5071651;28;20538;-27
2022/04/13 03:27:17;;;;;;;14.27;11.80;;;;;;;;;;5071603;28;20044;-28
2022/04/13 03:29:43;;;;;;;15.35;12.55;;;;;;;;;;5071993;28;20044;-28
2022/04/13 03:32:09;;;;;;;14.45;12.20;;;;;;;;;;5071651;28;20509;-28
2022/04/13 03:34:35;;;;;;;13.40;11.43;;;;;;;;;;5071647;28;20094;-28
2022/04/13 03:37:01;;;;;;;13.23;11.77;;;;;;;;;;5071279;28;20046;-28
2022/04/13 03:39:28;;;;;;;18.02;12.88;;;;;;;;;;5071531;28;20119;-27
2022/04/13 03:41:54;;;;;;;14.57;11.82;;;;;;;;;;5072184;28;20041;-26
2022/04/13 03:44:21;;;;;;;18.13;13.20;;;;;;;;;;5071944;28;20036;-28
2022/04/13 03:46:47;;;;;;;13.45;11.45;;;;;;;;;;5071863;28;20498;-28
2022/04/13 03:49:13;;;;;;;16.42;13.40;;;;;;;;;;5071970;28;20048;-28
2022/04/13 03:51:39;;;;;;;14.23;12.73;;;;;;;;;;5071762;28;20052;-27
2022/04/13 03:54:05;;;;;;;16.75;12.25;;;;;;;;;;5071591;28;20044;-26
2022/04/13 03:56:33;;;;;;;13.23;11.75;;;;;;;;;;5053557;28;20120;-27
2022/04/13 03:58:59;;;;;;;16.38;12.70;;;;;;;;;;5071762;28;20044;-27
2022/04/13 04:01:26;;;;;;;16.08;11.60;;;;;;;;;;5072019;28;20115;-27
2022/04/13 04:03:53;;;;;;;14.52;11.50;;;;;;;;;;5071822;28;20056;-27
2022/04/13 04:06:19;;;;;;;12.68;11.32;;;;;;;;;;5072074;28;20086;-28
2022/04/13 04:08:46;;;;;;;13.63;12.23;;;;;;;;;;5073546;28;20036;-28
2022/04/13 04:11:12;;;;;;;15.05;13.20;;;;;;;;;;5075912;28;20119;-27
2022/04/13 04:13:38;;;;;;;15.13;12.30;;;;;;;;;;5075917;28;20523;-28
2022/04/13 04:16:04;;;;;;;13.13;11.55;;;;;;;;;;5075869;28;20123;-28
2022/04/13 04:18:31;;;;;;;13.00;11.57;;;;;;;;;;5075573;28;20490;-28
2022/04/13 04:20:57;;;;;;;16.40;12.00;;;;;;;;;;5075126;28;20037;-28
2022/04/13 04:23:23;;;;;;;12.95;11.43;;;;;;;;;;5075372;28;20087;-28
2022/04/13 04:25:49;;;;;;;13.13;11.73;;;;;;;;;;5074932;28;20044;-28
2022/04/13 04:28:15;;;;;;;17.52;13.38;;;;;;;;;;5075454;28;20413;-29
2022/04/13 04:30:42;;;;;;;18.58;13.68;;;;;;;;;;5075098;28;20044;-28
2022/04/13 04:33:09;;;;;;;15.57;13.80;;;;;;;;;;5074709;28;20044;-28
2022/04/13 04:35:36;;;;;;;17.40;13.48;;;;;;;;;;5074562;28;20036;-28
2022/04/13 04:38:03;;;;;;;16.25;13.05;;;;;;;;;;5074118;28;20169;-27
2022/04/13 04:40:29;;;;;;;19.33;14.02;;;;;;;;;;5074212;28;20037;-28
2022/04/13 04:42:55;;;;;;;15.68;13.18;;;;;;;;;;5074507;28;20036;-27
2022/04/13 04:45:22;;;;;;;17.00;14.50;;;;;;;;;;5074768;28;20041;-27
2022/04/13 04:47:52;;;;;;;17.83;15.15;;;;;;;;;;5074228;28;20044;-29
2022/04/13 04:50:19;;;;;;;14.65;12.73;;;;;;;;;;5073414;28;20044;-33
2022/04/13 04:52:45;;;;;;;20.67;15.05;;;;;;;;;;5072915;28;20066;-31
2022/04/13 04:55:13;;;;;;;16.08;14.38;;;;;;;;;;5073548;28;20498;-30
2022/04/13 04:57:39;;;;;;;14.65;11.85;;;;;;;;;;5073843;28;20067;-30
2022/04/13 05:00:07;;;;;;;15.38;13.48;;;;;;;;;;5055526;28;20036;-30
2022/04/13 05:02:33;;;;;;;21.20;14.68;;;;;;;;;;5069929;28;20028;-30
2022/04/13 05:04:59;;;;;;;21.30;15.10;;;;;;;;;;5073889;28;20036;-29
2022/04/13 05:07:25;;;;;;;20.30;15.25;;;;;;;;;;5055361;28;20044;-30
2022/04/13 05:09:51;;;;;;;17.98;14.80;;;;;;;;;;5073797;28;20033;-31
2022/04/13 05:12:17;;;;;;;17.63;13.95;;;;;;;;;;5072766;28;20036;-30
2022/04/13 05:14:43;;;;;;;14.98;13.40;;;;;;;;;;5074600;28;20044;-32
2022/04/13 05:17:09;;;;;;;22.15;15.07;;;;;;;;;;5073800;28;20068;-31
2022/04/13 05:19:36;;;;;;;17.85;14.82;;;;;;;;;;5073036;28;20123;-29
2022/04/13 05:22:03;;;;;;;20.33;14.73;;;;;;;;;;5073357;28;20511;-30
2022/04/13 05:24:29;;;;;;;20.73;14.93;;;;;;;;;;5073936;28;20037;-31
2022/04/13 05:26:55;;;;;;;21.15;15.27;;;;;;;;;;5066299;28;20033;-30
2022/04/13 05:29:21;;;;;;;18.65;15.23;;;;;;;;;;5058726;28;20037;-32
2022/04/13 05:31:47;;;;;;;20.77;15.77;;;;;;;;;;5060205;28;20376;-31
2022/04/13 05:34:15;;;;;;;18.55;15.52;;;;;;;;;;5061574;28;20116;-30
2022/04/13 05:36:41;;;;;;;18.83;15.55;;;;;;;;;;5059637;28;20127;-33
2022/04/13 05:39:07;;;;;;;19.10;15.45;;;;;;;;;;5061867;28;20499;-33
2022/04/13 05:41:35;;;;;;;27.73;21.25;;;;;;;;;;5058502;28;20433;-30
2022/04/13 05:44:01;;;;;;;22.75;18.38;;;;;;;;;;5065830;28;20032;-30
2022/04/13 05:46:27;;;;;;;22.00;19.85;;;;;;;;;;5064831;28;20521;-31
2022/04/13 05:48:53;;;;;;;23.48;18.30;;;;;;;;;;5057219;28;20045;-30
2022/04/13 05:51:19;;;;;;;20.85;16.92;;;;;;;;;;5059634;28;20068;-34
2022/04/13 05:53:45;;;;;;;20.20;16.40;;;;;;;;;;5056925;28;20037;-30
2022/04/13 05:56:11;;;;;;;21.63;18.13;;;;;;;;;;5038967;28;20082;-29
2022/04/13 05:58:40;;;;;;;19.70;17.15;;;;;;;;;;5062127;28;20068;-30
2022/04/13 06:01:06;;;;;;;18.63;15.77;;;;;;;;;;5058999;28;20075;-29
2022/04/13 06:03:33;;;;;;;16.73;14.90;;;;;;;;;;5045953;28;20072;-29
2022/04/13 06:05:59;;;;;;;17.67;15.25;;;;;;;;;;5060139;28;20056;-30
2022/04/13 06:08:25;;;;;;;19.00;14.98;;;;;;;;;;5057982;28;20051;-30
2022/04/13 06:10:51;;;;;;;17.23;15.15;;;;;;;;;;5055137;28;20115;-31
2022/04/13 06:13:17;;;;;;;16.33;14.23;;;;;;;;;;5057899;28;20124;-31
2022/04/13 06:15:44;;;;;;;17.42;15.07;;;;;;;;;;5062959;28;20128;-30
2022/04/13 06:18:10;;;;;;;18.55;15.93;;;;;;;;;;5055711;28;20441;-31
2022/04/13 06:20:36;;;;;;;19.25;15.15;;;;;;;;;;5062424;28;20102;-30
2022/04/13 06:23:02;;;;;;;19.60;16.08;;;;;;;;;;5071259;28;20033;-30
2022/04/13 06:25:29;;;;;;;17.85;15.15;;;;;;;;;;5067958;28;20063;-30
2022/04/13 06:27:55;;;;;;;22.05;16.23;;;;;;;;;;5071371;28;20050;-30
2022/04/13 06:30:21;;;;;;;21.17;16.77;;;;;;;;;;5072047;28;20040;-30
2022/04/13 06:32:47;;;;;;;19.05;17.05;;;;;;;;;;5071567;28;20043;-31
2022/04/13 06:35:15;;;;;;;18.48;16.52;;;;;;;;;;5069327;28;20037;-33
2022/04/13 06:37:43;;;;;;;20.25;16.40;;;;;;;;;;5062088;28;20040;-31
2022/04/13 06:40:11;;;;;;;18.52;16.55;;;;;;;;;;5063701;28;20048;-30
2022/04/13 06:42:37;;;;;;;17.70;15.57;;;;;;;;;;5063064;28;20409;-32
2022/04/13 06:45:08;;;;;;;17.80;15.80;;;;;;;;;;5044061;28;20036;-29
2022/04/13 06:47:34;;;;;;;18.77;14.48;;;;;;;;;;5067653;28;20063;-33
2022/04/13 06:50:00;;;;;;;22.73;15.85;;;;;;;;;;5071851;28;20094;-32
2022/04/13 06:52:26;;;;;;;16.30;14.60;;;;;;;;;;5071254;28;20078;-32
2022/04/13 06:54:52;;;;;;;18.33;15.13;;;;;;;;;;5071504;28;20044;-30
2022/04/13 06:57:18;;;;;;;18.17;14.30;;;;;;;;;;5071562;28;20068;-31
2022/04/13 06:59:44;;;;;;;17.92;14.55;;;;;;;;;;5069908;28;20029;-32
2022/04/13 07:02:10;;;;;;;17.63;14.30;;;;;;;;;;5061646;28;20033;-33
2022/04/13 07:04:37;;;;;;;16.17;14.48;;;;;;;;;;5058476;28;20075;-31
2022/04/13 07:07:04;;;;;;;16.38;14.63;;;;;;;;;;5067478;28;20040;-30
2022/04/13 07:09:30;;;;;;;19.42;14.57;;;;;;;;;;5068988;28;20468;-30
2022/04/13 07:11:56;;;;;;;19.70;14.65;;;;;;;;;;5070238;28;20044;-31
2022/04/13 07:14:22;;;;;;;19.40;14.18;;;;;;;;;;5069745;28;20406;-31
2022/04/13 07:16:48;;;;;;;16.48;13.88;;;;;;;;;;5069147;28;20039;-31
2022/04/13 07:19:14;;;;;;;17.75;13.88;;;;;;;;;;5064302;28;20444;-33
2022/04/13 07:21:40;;;;;;;19.23;13.00;;;;;;;;;;5065504;28;20044;-31
2022/04/13 07:24:06;;;;;;;16.55;10.80;;;;;;;;;;5057172;28;20102;-31
2022/04/13 07:26:32;;;;;;;14.70;10.43;;;;;;;;;;5051479;28;20044;-30
2022/04/13 07:28:59;;;;;;;13.35;10.18;;;;;;;;;;5054155;28;20083;-31
2022/04/13 07:31:25;;;;;;;13.10;10.07;;;;;;;;;;5071413;28;20073;-30
2022/04/13 07:33:51;;;;;;;15.82;10.60;;;;;;;;;;5070113;28;20044;-31
2022/04/13 07:36:17;;;;;;;11.52;9.90;;;;;;;;;;5070895;28;20102;-31
2022/04/13 07:38:43;;;;;;;12.18;9.10;;;;;;;;;;5071070;28;20033;-30
2022/04/13 07:41:09;;;;;;;12.35;9.63;;;;;;;;;;5070795;28;20036;-31
2022/04/13 07:43:35;;;;;;;14.10;10.55;;;;;;;;;;5070609;28;20101;-31
2022/04/13 07:46:01;;;;;;;13.85;10.45;;;;;;;;;;5071226;28;20036;-32
2022/04/13 07:48:29;;;;;;;11.55;9.48;;;;;;;;;;5071678;28;20498;-31
2022/04/13 07:50:55;;;;;;;10.70;9.57;;;;;;;;;;5069960;28;20063;-32
2022/04/13 07:53:22;;;;;;;10.20;8.45;;;;;;;;;;5070243;28;20046;-33
2022/04/13 07:55:48;;;;;;;11.48;8.40;;;;;;;;;;5066555;28;20132;-30
2022/04/13 07:58:14;;;;;;;12.65;9.57;;;;;;;;;;5061686;28;20406;-31
2022/04/13 08:00:40;;;;;;;12.32;8.45;;;;;;;;;;5062716;28;20044;-30
2022/04/13 08:03:06;;;;;;;9.15;7.75;;;;;;;;;;5061615;28;20198;-31
2022/04/13 08:05:32;;;;;;;9.00;7.78;;;;;;;;;;5061185;28;20080;-31
2022/04/13 08:07:58;;;;;;;9.15;8.15;;;;;;;;;;5068936;28;20072;-31
2022/04/13 08:10:24;;;;;;;11.15;8.70;;;;;;;;;;5070872;28;20102;-31
2022/04/13 08:12:51;;;;;;;12.23;8.88;;;;;;;;;;5070547;28;20109;-31
2022/04/13 08:15:17;;;;;;;10.60;8.93;;;;;;;;;;5071136;28;20123;-32
2022/04/13 08:17:43;;;;;;;10.52;8.80;;;;;;;;;;5059781;28;20108;-30
2022/04/13 08:20:14;;;;;;;12.63;9.18;;;;;;;;;;5059745;28;20049;-30
2022/04/13 08:22:41;;;;;;;10.57;9.05;;;;;;;;;;5057474;28;20036;-30
2022/04/13 08:25:07;;;;;;;13.50;9.27;;;;;;;;;;5056746;28;20133;-30
2022/04/13 08:27:33;;;;;;;11.85;8.95;;;;;;;;;;5040486;28;20045;-30
2022/04/13 08:30:00;;;;;;;15.57;9.52;;;;;;;;;;5062963;28;20052;-30
2022/04/13 08:32:26;;;;;;;12.38;9.68;;;;;;;;;;5060115;28;20040;-31
2022/04/13 08:34:52;;;;;;;13.75;9.82;;;;;;;;;;5056130;28;20125;-31
2022/04/13 08:37:19;;;;;;;11.68;10.48;;;;;;;;;;5059933;28;20040;-31
2022/04/13 08:39:45;;;;;;;12.63;10.13;;;;;;;;;;5059025;28;20033;-30
2022/04/13 08:42:12;;;;;;;14.10;10.65;;;;;;;;;;5057946;28;20048;-32
2022/04/13 08:44:49;;;;;;;10.95;9.77;;;;;;;;;;5055909;28;20072;-30
2022/04/13 08:47:17;;;;;;;14.48;9.73;;;;;;;;;;5059582;28;20068;-32
2022/04/13 08:49:44;;;;;;;13.85;10.10;;;;;;;;;;5064284;28;20045;-31
2022/04/13 08:52:13;;;;;;;11.90;9.57;;;;;;;;;;5058622;28;20041;-30
2022/04/13 08:54:45;;;;;;;13.90;9.52;;;;;;;;;;5064228;28;20059;-31
2022/04/13 08:57:12;;;;;;;10.77;9.52;;;;;;;;;;5053759;28;20079;-32
2022/04/13 08:59:47;;;;;;;14.13;9.77;;;;;;;;;;5070419;28;20040;-30
2022/04/13 09:02:32;;;;;;;13.02;9.38;;;;;;;;;;5074008;28;20110;-30
2022/04/13 09:05:00;;;;;;;13.55;9.73;;;;;;;;;;5073563;28;20048;-30
2022/04/13 09:07:31;;;;;;;11.90;9.85;;;;;;;;;;5074273;28;20498;-31
2022/04/13 09:09:59;;;;;;;10.68;8.77;;;;;;;;;;5072759;28;20040;-32
2022/04/13 09:12:30;;;;;;;10.70;9.13;;;;;;;;;;5073307;28;20049;-32
2022/04/13 09:14:57;;;;;;;13.18;9.07;;;;;;;;;;5073468;28;20503;-31
2022/04/13 09:17:25;;;;;;;9.85;8.45;;;;;;;;;;5073888;28;20047;-31
2022/04/13 09:19:51;;;;;;;11.52;7.90;;;;;;;;;;5072833;28;20063;-30
2022/04/13 09:22:18;;;;;;;11.07;8.55;;;;;;;;;;5064256;28;20040;-31
2022/04/13 09:24:45;;;;;;;12.38;8.98;;;;;;;;;;5066686;28;20249;-31
2022/04/13 09:27:12;;;;;;;12.85;8.55;;;;;;;;;;5072978;28;20093;-31
2022/04/13 09:29:38;;;;;;;12.13;7.68;;;;;;;;;;5058964;28;20490;-30
2022/04/13 09:32:04;;;;;;;11.15;8.38;;;;;;;;;;5065180;28;20045;-30
2022/04/13 09:34:30;;;;;;;13.32;7.72;;;;;;;;;;5072269;28;20125;-32
2022/04/13 09:36:56;;;;;;;10.70;7.85;;;;;;;;;;5073451;28;20498;-31
2022/04/13 09:39:23;;;;;;;8.80;7.78;;;;;;;;;;5070894;28;20059;-31
2022/04/13 09:41:51;;;;;;;11.93;7.63;;;;;;;;;;5069720;28;20174;-30
2022/04/13 09:44:21;;;;;;;10.00;7.97;;;;;;;;;;5057599;28;20043;-31
2022/04/13 09:46:47;;;;;;;9.27;7.90;;;;;;;;;;5072900;28;20493;-31
2022/04/13 09:49:15;;;;;;;9.07;8.02;;;;;;;;;;5072448;28;20398;-32
2022/04/13 09:51:42;;;;;;;12.27;8.50;;;;;;;;;;5071039;28;20039;-30
2022/04/13 09:54:08;;;;;;;9.60;7.70;;;;;;;;;;5073170;28;20559;-35
2022/04/13 09:56:38;;;;;;;9.85;7.82;;;;;;;;;;5039536;28;20486;-32
2022/04/13 09:59:05;;;;;;;11.57;7.93;;;;;;;;;;5072698;28;20470;-30
2022/04/13 10:01:34;;;;;;;8.07;7.30;;;;;;;;;;5072513;28;20383;-30
2022/04/13 10:04:03;;;;;;;6.97;6.25;;;;;;;;;;5072795;28;20535;-30
2022/04/13 10:06:35;;;;;;;7.53;6.55;;;;;;;;;;5072612;28;20044;-32
2022/04/13 10:09:06;;;;;;;9.50;7.20;;;;;;;;;;5073589;28;20390;-31
2022/04/13 10:11:32;;;;;;;9.48;6.65;;;;;;;;;;5069775;28;20295;-35
2022/04/13 10:14:02;;;;;;;8.00;6.88;;;;;;;;;;5070419;28;20275;-31
2022/04/13 10:16:33;;;;;;;7.72;6.78;;;;;;;;;;5050320;28;20072;-31
2022/04/13 10:19:05;;;;;;;8.02;6.50;;;;;;;;;;5071435;28;20156;-32
2022/04/13 10:21:40;;;;;;;8.73;7.20;;;;;;;;;;5065107;28;20414;-33
2022/04/13 10:24:08;;;;;;;8.43;7.05;;;;;;;;;;5058284;28;20438;-33
2022/04/13 10:26:34;;;;;;;8.75;6.32;;;;;;;;;;5068450;28;20036;-31
2022/04/13 10:29:00;;;;;;;10.35;6.95;;;;;;;;;;5071740;28;20114;-34
2022/04/13 10:31:26;;;;;;;7.40;6.45;;;;;;;;;;5064647;28;20333;-33
2022/04/13 10:33:52;;;;;;;6.70;5.97;;;;;;;;;;5072541;28;20051;-32
2022/04/13 10:36:19;;;;;;;6.43;5.55;;;;;;;;;;5068829;28;20033;-31
2022/04/13 10:38:45;;;;;;;5.90;5.30;;;;;;;;;;5054355;28;20094;-32
2022/04/13 10:41:16;;;;;;;8.77;6.38;;;;;;;;;;5065204;28;20126;-32
2022/04/13 10:43:43;;;;;;;7.72;5.60;;;;;;;;;;5072705;28;20103;-35
2022/04/13 10:46:09;;;;;;;6.30;5.57;;;;;;;;;;5070849;28;20051;-34
2022/04/13 10:48:41;;;;;;;7.95;5.70;;;;;;;;;;5060619;28;20045;-32
2022/04/13 10:51:13;;;;;;;7.60;6.10;;;;;;;;;;5040188;28;20043;-32
2022/04/13 10:53:50;;;;;;;8.55;5.70;;;;;;;;;;5059949;28;20064;-35
2022/04/13 10:56:20;;;;;;;8.60;6.90;;;;;;;;;;5061450;28;20104;-33
2022/04/13 10:58:52;;;;;;;8.20;5.57;;;;;;;;;;5060143;28;20117;-31
2022/04/13 11:01:19;;;;;;;9.25;5.45;;;;;;;;;;5062043;28;20052;-32
2022/04/13 11:03:46;;;;;;;7.95;5.22;;;;;;;;;;5069345;28;20036;-36
2022/04/13 11:06:13;;;;;;;5.78;5.05;;;;;;;;;;5053453;28;20040;-32
2022/04/13 11:08:53;;;;;;;10.73;5.63;;;;;;;;;;5051113;28;20080;-33
2022/04/13 11:11:20;;;;;;;6.05;5.28;;;;;;;;;;5064615;28;20512;-31
2022/04/13 11:13:47;;;;;;;6.40;5.07;;;;;;;;;;5070906;28;20045;-32
2022/04/13 11:16:15;;;;;;;7.63;5.28;;;;;;;;;;5053107;28;20042;-33
2022/04/13 11:18:41;;;;;;;9.68;6.63;;;;;;;;;;5070750;28;20120;-33
2022/04/13 11:21:07;;;;;;;8.23;6.72;;;;;;;;;;5067839;28;20037;-32
2022/04/13 11:23:48;;;;;;;8.77;6.63;;;;;;;;;;5058158;28;20033;-32
2022/04/13 11:26:15;;;;;;;6.97;5.85;;;;;;;;;;5056372;28;20041;-31
2022/04/13 11:28:41;;;;;;;7.55;5.38;;;;;;;;;;5060482;28;20029;-32
2022/04/13 11:31:08;;;;;;;9.35;5.60;;;;;;;;;;5058017;28;20043;-36
2022/04/13 11:33:41;;;;;;;7.35;6.22;;;;;;;;;;5054763;28;20041;-32
2022/04/13 11:36:07;;;;;;;6.95;6.18;;;;;;;;;;5054876;28;20453;-30
2022/04/13 11:38:36;;;;;;;9.80;6.07;;;;;;;;;;5056522;28;20033;-33
2022/04/13 11:41:08;;;;;;;7.95;6.18;;;;;;;;;;5054851;28;20033;-31
2022/04/13 11:43:35;;;;;;;4.97;4.53;;;;;;;;;;5054324;28;20560;-36
2022/04/13 11:46:01;;;;;;;5.30;4.10;;;;;;;;;;5064402;28;20365;-32
2022/04/13 11:48:34;;;;;;;4.50;4.05;;;;;;;;;;5039147;28;20036;-30
2022/04/13 11:51:18;;;;;;;5.28;4.57;;;;;;;;;;5054197;28;20510;-33
2022/04/13 11:53:54;;;;;;;6.45;5.55;;;;;;;;;;5058027;28;20048;-32
2022/04/13 11:56:39;;;;;;;6.88;6.00;;;;;;;;;;5052102;28;20171;-33
2022/04/13 11:59:06;;;;;;;7.65;6.50;;;;;;;;;;5053041;28;20041;-34
2022/04/13 12:01:33;;;;;;;7.95;6.50;;;;;;;;;;5051869;28;20048;-32
2022/04/13 12:04:03;;;;;;;10.88;7.72;;;;;;;;;;5070499;28;20183;-31
2022/04/13 12:06:30;;;;;;;8.52;7.03;;;;;;;;;;5069962;28;20045;-33
2022/04/13 12:08:58;;;;;;;10.90;7.22;;;;;;;;;;5062937;28;20503;-32
2022/04/13 12:11:39;;;;;;;11.63;7.32;;;;;;;;;;5055815;28;20056;-32
2022/04/13 12:14:06;;;;;;;7.43;6.70;;;;;;;;;;5059285;28;20301;-32
2022/04/13 12:16:39;;;;;;;9.45;6.63;;;;;;;;;;5059774;28;20035;-32
2022/04/13 12:19:09;;;;;;;8.85;6.55;;;;;;;;;;5062062;28;20041;-33
2022/04/13 12:21:36;;;;;;;7.78;5.97;;;;;;;;;;5063676;28;20428;-33
2022/04/13 12:24:10;;;;;;;7.13;5.80;;;;;;;;;;5070110;28;20040;-33
2022/04/13 12:26:37;;;;;;;8.68;5.57;;;;;;;;;;5069859;28;20040;-31
2022/04/13 12:29:14;;;;;;;6.03;5.20;;;;;;;;;;5070607;28;20437;-31
2022/04/13 12:31:46;;;;;;;6.25;5.20;;;;;;;;;;5073660;28;20127;-32
2022/04/13 12:34:16;;;;;;;6.43;5.05;;;;;;;;;;5073520;28;20482;-31
2022/04/13 12:36:42;;;;;;;5.78;4.00;;;;;;;;;;5074355;28;20430;-31
2022/04/13 12:39:12;;;;;;;6.70;4.10;;;;;;;;;;5073692;28;20048;-33
2022/04/13 12:41:38;;;;;;;4.20;3.47;;;;;;;;;;5072824;28;20045;-30
2022/04/13 12:44:05;;;;;;;4.60;3.03;;;;;;;;;;5055735;28;20064;-30
2022/04/13 12:46:32;;;;;;;7.90;3.33;;;;;;;;;;5073592;28;20117;-31
2022/04/13 12:48:58;;;;;;;7.32;4.20;;;;;;;;;;5056209;28;20171;-31
2022/04/13 12:51:24;;;;;;;5.18;4.22;;;;;;;;;;5073327;28;20124;-33
2022/04/13 12:53:57;;;;;;;7.60;3.63;;;;;;;;;;5072773;28;20603;-31
2022/04/13 12:56:24;;;;;;;5.45;3.42;;;;;;;;;;5073879;28;20174;-31
2022/04/13 12:58:50;;;;;;;6.50;2.85;;;;;;;;;;5073184;28;20033;-32
2022/04/13 13:01:22;;;;;;;6.72;3.35;;;;;;;;;;5073455;28;20104;-32
2022/04/13 13:03:48;;;;;;;6.38;3.90;;;;;;;;;;5073142;28;20081;-32
2022/04/13 13:06:14;;;;;;;5.22;3.33;;;;;;;;;;5073812;28;20127;-32
2022/04/13 13:08:50;;;;;;;6.35;4.10;;;;;;;;;;5072563;28;20040;-31
2022/04/13 13:11:17;;;;;;;8.07;4.40;;;;;;;;;;5073248;28;20040;-31
2022/04/13 13:13:43;;;;;;;12.00;6.22;;;;;;;;;;5072215;28;20044;-31
2022/04/13 13:16:28;;;;;;;9.75;6.03;;;;;;;;;;5073697;28;20494;-31
2022/04/13 13:19:11;;;;;;;11.52;7.60;;;;;;;;;;5072828;28;20037;-32
2022/04/13 13:21:37;;;;;;;11.90;7.60;;;;;;;;;;5073251;28;20051;-31
2022/04/13 13:24:04;;;;;;;10.27;7.95;;;;;;;;;;5072594;28;20127;-29
2022/04/13 13:26:30;;;;;;;11.10;8.15;;;;;;;;;;5073135;28;20036;-33
2022/04/13 13:28:56;;;;;;;14.68;8.45;;;;;;;;;;5072668;28;20455;-29
2022/04/13 13:31:26;;;;;;;10.38;7.35;;;;;;;;;;5072873;28;20111;-31
2022/04/13 13:33:53;;;;;;;10.27;6.75;;;;;;;;;;5072326;28;20036;-31
2022/04/13 13:36:19;;;;;;;10.70;6.80;;;;;;;;;;5072603;28;20113;-32
2022/04/13 13:38:48;;;;;;;10.70;6.40;;;;;;;;;;5072880;28;20032;-33
2022/04/13 13:41:14;;;;;;;9.90;5.80;;;;;;;;;;5071118;28;20036;-30
2022/04/13 13:43:41;;;;;;;9.73;5.15;;;;;;;;;;5073010;28;20041;-31
2022/04/13 13:46:14;;;;;;;9.82;5.78;;;;;;;;;;5072674;28;20105;-33
2022/04/13 13:48:40;;;;;;;;;;;;;;;;;;5073211;28;20048;-32
2022/04/13 13:51:08;;;;;;;10.02;4.57;;;;;;;;;;5072142;28;19917;-33
2022/04/13 13:53:34;;;;;;;8.13;4.07;;;;;;;;;;5073015;28;20036;-33
2022/04/13 13:56:01;;;;;;;9.93;4.22;;;;;;;;;;5072741;28;20068;-33
2022/04/13 13:58:27;;;;;;;6.72;3.67;;;;;;;;;;5073467;28;20398;-31
2022/04/13 14:00:53;;;;;;;7.53;3.30;;;;;;;;;;5072612;28;20075;-30
2022/04/13 14:03:19;;;;;;;6.80;3.28;;;;;;;;;;5072363;28;20052;-29
2022/04/13 14:05:46;;;;;;;4.93;2.50;;;;;;;;;;5070991;28;20048;-34
2022/04/13 14:08:14;;;;;;;6.10;2.65;;;;;;;;;;5072541;28;20123;-32
2022/04/13 14:10:42;;;;;;;4.20;2.10;;;;;;;;;;5071553;28;20036;-33
2022/04/13 14:13:09;;;;;;;5.03;1.80;;;;;;;;;;5071983;28;20041;-32
2022/04/13 14:15:35;;;;;;;3.67;2.00;;;;;;;;;;5071669;28;20147;-31
2022/04/13 14:18:02;;;;;;;5.32;1.73;;;;;;;;;;5071995;28;20035;-32
2022/04/13 14:20:28;;;;;;;2.70;1.50;;;;;;;;;;5071396;28;20107;-31
2022/04/13 14:22:55;;;;;;;4.55;1.70;;;;;;;;;;5072059;28;20096;-32
2022/04/13 14:25:22;;;;;;;4.82;1.50;;;;;;;;;;5071706;28;20043;-34
2022/04/13 14:27:52;;;;;;;3.45;1.60;;;;;;;;;;5072437;28;20040;-31
2022/04/13 14:30:20;;;;;;;5.70;1.60;;;;;;;;;;5071807;28;20050;-32